Terminal Aerodrome Forecast
Issued by NWS

Home | Current Version | Previous Version | Graphics & Text | Print | Product List | Glossary On
Versions: 1 2 3 4 5 6 7 8 9 10 11 12 13 14 15 16 17 18 19 20 21 22 23 24 25 26 27 28 29 30 31 32
000
FTUS43 KLOT 240800 AAA
TAFDPA
TAF AMD
KDPA 240835Z 2409/2506 36005KT 6SM -SHRA BR SCT025 OVC050
     FM241400 36008KT 4SM -RA BR SCT008 OVC015
     FM241800 33011G20KT 3SM -RASN BR OVC006
      TEMPO 2418/2421 1SM -SN BR
     FM250000 28014KT 3SM BR OVC007=

USA.gov is the U.S. government's official web portal to all federal, state and local government web resources and services.